Time;durP1;ratioP1;P1;durP2;ratioP2;P2;SDS_P1;SDS_P2;PMS_P1;PMS_P2;Temp;Humidity;BMP_temperature;BMP_pressure;BME280_temperature;BME280_humidity;BME280_pressure;Samples;Min_cycle;Max_cycle;Signal;HPM_P1;HPM_P2
2022/09/23 00:00:16;;;;;;;20.33;17.23;;;;;;;;;;5112342;28;20392;-76
2022/09/23 00:02:47;;;;;;;20.20;17.10;;;;;;;;;;5062269;28;20982;-76
2022/09/23 00:05:13;;;;;;;22.75;17.38;;;;;;;;;;5100367;27;20570;-76
2022/09/23 00:07:39;;;;;;;20.13;17.90;;;;;;;;;;5099235;28;20423;-76
2022/09/23 00:10:06;;;;;;;22.35;18.70;;;;;;;;;;5097172;27;20692;-76
2022/09/23 00:12:32;;;;;;;21.05;18.08;;;;;;;;;;5115975;27;20399;-76
2022/09/23 00:14:58;;;;;;;20.70;18.55;;;;;;;;;;5086574;28;20425;-76
2022/09/23 00:17:25;;;;;;;22.10;19.63;;;;;;;;;;5058723;28;20746;-76
2022/09/23 00:19:51;;;;;;;21.75;19.45;;;;;;;;;;5072414;28;20426;-76
2022/09/23 00:22:17;;;;;;;21.20;18.98;;;;;;;;;;5075236;28;20426;-76
2022/09/23 00:24:43;;;;;;;22.38;18.95;;;;;;;;;;5074649;28;20405;-76
2022/09/23 00:27:09;;;;;;;21.98;18.45;;;;;;;;;;5074379;28;20429;-76
2022/09/23 00:29:35;;;;;;;21.33;19.02;;;;;;;;;;5087903;28;20430;-75
2022/09/23 00:32:02;;;;;;;23.63;19.25;;;;;;;;;;5076380;28;20462;-75
2022/09/23 00:34:28;;;;;;;20.65;18.45;;;11.00;99.90;;;;;;5094785;28;20427;-75
2022/09/23 00:36:55;;;;;;;21.73;18.95;;;;;;;;;;5094572;28;20401;-76
2022/09/23 00:39:22;;;;;;;24.30;18.67;;;;;;;;;;5090441;28;20816;-76
2022/09/23 00:41:48;;;;;;;21.42;19.13;;;;;;;;;;5102222;27;20478;-76
2022/09/23 00:44:33;;;;;;;21.35;19.05;;;;;;;;;;5112721;27;20450;-76
2022/09/23 00:46:59;;;;;;;21.30;18.83;;;;;;;;;;5112978;27;20429;-75
2022/09/23 00:49:29;;;;;;;24.92;19.05;;;11.10;99.90;;;;;;5109067;28;20512;-76
2022/09/23 00:51:59;;;;;;;22.50;18.95;;;11.10;99.90;;;;;;5106208;27;20419;-76
2022/09/23 00:54:26;;;;;;;22.23;18.92;;;;;;;;;;5078966;28;20439;-76
2022/09/23 00:56:52;;;;;;;21.80;19.50;;;;;;;;;;5106239;27;20510;-71
2022/09/23 00:59:20;;;;;;;21.30;18.85;;;;;;;;;;5108542;28;20860;-71
2022/09/23 01:01:48;;;;;;;23.58;18.85;;;;;;;;;;5103242;27;20763;-71
2022/09/23 01:04:14;;;;;;;22.92;19.17;;;11.00;99.90;;;;;;5098253;27;20411;-71
2022/09/23 01:06:40;;;;;;;24.60;19.47;;;11.10;99.90;;;;;;5113784;27;20490;-72
2022/09/23 01:09:06;;;;;;;23.45;19.48;;;;;;;;;;5107518;27;20943;-73
2022/09/23 01:12:01;;;;;;;24.60;19.98;;;10.90;99.90;;;;;;5114975;27;20399;-73
2022/09/23 01:14:51;;;;;;;24.20;20.13;;;11.10;99.90;;;;;;5080357;27;20422;-72
2022/09/23 01:17:47;;;;;;;22.17;19.70;;;11.00;99.90;;;;;;5096205;27;20446;-72
2022/09/23 01:20:32;;;;;;;22.58;20.20;;;;;;;;;;5111148;27;20445;-72
2022/09/23 01:22:58;;;;;;;25.40;20.33;;;;;;;;;;5103557;27;20426;-72
2022/09/23 01:25:27;;;;;;;22.35;19.85;;;;;;;;;;5100205;28;20416;-72
2022/09/23 01:28:12;;;;;;;26.23;20.75;;;;;;;;;;5076494;28;20408;-71
2022/09/23 01:30:42;;;;;;;28.30;20.43;;;;;;;;;;5096526;27;20410;-71
2022/09/23 01:33:11;;;;;;;24.05;20.08;;;;;;;;;;5089137;28;20418;-71
2022/09/23 01:35:43;;;;;;;26.17;21.35;;;;;;;;;;5056990;28;20398;-71
2022/09/23 01:38:18;;;;;;;24.83;20.80;;;;;;;;;;5073249;28;20410;-71
2022/09/23 01:40:50;;;;;;;24.83;20.40;;;;;;;;;;5094520;28;20417;-72
2022/09/23 01:43:19;;;;;;;23.67;21.00;;;;;;;;;;5091674;28;20528;-72
2022/09/23 01:45:46;;;;;;;24.85;21.27;;;10.60;99.90;;;;;;5091634;28;20427;-72
2022/09/23 01:48:53;;;;;;;26.52;20.13;;;10.90;99.90;;;;;;5074396;28;20991;-72
2022/09/23 01:51:28;;;;;;;23.00;20.42;;;;;;;;;;5104545;28;20446;-72
2022/09/23 01:54:08;;;;;;;23.23;20.50;;;10.40;99.90;;;;;;5110406;28;20773;-72
2022/09/23 01:56:39;;;;;;;27.88;21.20;;;;;;;;;;5113650;28;20893;-72
2022/09/23 01:59:05;;;;;;;30.45;21.10;;;;;;;;;;5107795;28;20757;-72
2022/09/23 02:01:38;;;;;;;27.60;20.40;;;;;;;;;;5091604;28;20476;-72
2022/09/23 02:04:25;;;;;;;30.08;20.40;;;;;;;;;;5100162;28;20455;-72
2022/09/23 02:06:54;;;;;;;26.23;20.42;;;;;;;;;;5114512;27;20723;-72
2022/09/23 02:09:25;;;;;;;28.63;20.70;;;;;;;;;;5105218;28;20425;-72
2022/09/23 02:11:59;;;;;;;22.95;20.08;;;10.50;99.90;;;;;;5077147;28;20485;-72
2022/09/23 02:14:52;;;;;;;25.52;20.08;;;10.50;99.90;;;;;;5102729;28;20424;-72
2022/09/23 02:17:24;;;;;;;23.50;18.77;;;;;;;;;;5080987;27;20409;-72
2022/09/23 02:19:56;;;;;;;22.42;19.58;;;10.40;99.90;;;;;;5111558;28;20419;-72
2022/09/23 02:22:36;;;;;;;24.10;19.27;;;10.50;99.90;;;;;;5115222;27;20520;-72
2022/09/23 02:25:02;;;;;;;24.17;20.10;;;;;;;;;;5087756;28;20919;-75
2022/09/23 02:27:42;;;;;;;24.60;20.27;;;10.50;99.90;;;;;;5096269;27;20427;-75
2022/09/23 02:30:11;;;;;;;22.98;19.92;;;;;;;;;;5108692;28;20412;-75
2022/09/23 02:32:45;;;;;;;22.88;20.10;;;;;;;;;;5115619;28;20396;-75
2022/09/23 02:35:17;;;;;;;25.63;20.45;;;10.20;99.90;;;;;;5080777;27;20502;-75
2022/09/23 02:37:43;;;;;;;26.13;20.50;;;;;;;;;;5099133;28;20502;-75
2022/09/23 02:40:13;;;;;;;23.02;20.38;;;;;;;;;;5096096;28;20421;-74
2022/09/23 02:42:44;;;;;;;24.33;20.53;;;;;;;;;;5096377;28;20392;-75
2022/09/23 02:45:11;;;;;;;25.02;21.52;;;;;;;;;;5082146;28;20964;-75
2022/09/23 02:47:40;;;;;;;23.00;20.48;;;10.00;99.90;;;;;;5076499;28;20824;-75
2022/09/23 02:50:08;;;;;;;23.45;20.58;;;;;;;;;;5110011;28;20410;-74
2022/09/23 02:52:36;;;;;;;23.90;21.23;;;;;;;;;;5078676;28;20412;-74
2022/09/23 02:55:03;;;;;;;24.88;22.17;;;;;;;;;;5109109;27;20414;-74
2022/09/23 02:57:29;;;;;;;24.97;22.00;;;;;;;;;;5077350;28;20453;-74
2022/09/23 02:59:55;;;;;;;23.73;21.08;;;;;;;;;;5087888;28;20416;-75
2022/09/23 03:02:21;;;;;;;24.80;22.10;;;;;;;;;;5082762;28;20772;-75
2022/09/23 03:04:54;;;;;;;26.33;21.67;;;;;;;;;;5095697;28;20451;-75
2022/09/23 03:07:31;;;;;;;26.95;22.48;;;;;;;;;;5096576;28;20457;-75
2022/09/23 03:09:57;;;;;;;27.85;22.50;;;;;;;;;;5087434;27;20412;-74
2022/09/23 03:12:24;;;;;;;25.77;22.33;;;;;;;;;;5116944;27;20434;-75
2022/09/23 03:14:58;;;;;;;25.95;23.23;;;;;;;;;;5104626;28;20420;-75
2022/09/23 03:17:27;;;;;;;27.70;22.80;;;;;;;;;;5114290;27;20422;-75
2022/09/23 03:19:58;;;;;;;24.92;22.20;;;;;;;;;;5116163;27;20410;-75
2022/09/23 03:22:30;;;;;;;28.53;22.20;;;9.60;99.90;;;;;;5115446;27;20418;-75
2022/09/23 03:25:00;;;;;;;25.67;22.87;;;;;;;;;;5089834;27;20424;-75
2022/09/23 03:27:30;;;;;;;26.95;23.38;;;9.70;99.90;;;;;;5099292;27;20901;-75
2022/09/23 03:29:56;;;;;;;26.77;22.33;;;;;;;;;;5116417;27;20398;-75
2022/09/23 03:32:26;;;;;;;27.55;23.08;;;9.50;99.90;;;;;;5111796;27;20446;-75
2022/09/23 03:34:54;;;;;;;25.20;22.50;;;;;;;;;;5112799;27;20822;-74
2022/09/23 03:37:30;;;;;;;26.10;23.03;;;;;;;;;;5077925;28;20461;-74
2022/09/23 03:40:05;;;;;;;27.47;23.43;;;9.50;99.90;;;;;;5096075;28;20481;-74
2022/09/23 03:42:33;;;;;;;25.17;22.27;;;;;;;;;;5093796;28;20408;-74
2022/09/23 03:45:00;;;;;;;26.38;22.98;;;;;;;;;;5077822;28;20422;-74
2022/09/23 03:47:27;;;;;;;28.15;22.85;;;;;;;;;;5073916;28;20858;-75
2022/09/23 03:49:53;;;;;;;26.73;23.58;;;;;;;;;;5095888;28;20404;-75
2022/09/23 03:52:20;;;;;;;27.73;23.13;;;;;;;;;;5090931;27;20841;-74
2022/09/23 03:54:46;;;;;;;27.77;23.55;;;;;;;;;;5094193;28;20424;-74
2022/09/23 03:57:13;;;;;;;26.48;22.75;;;;;;;;;;5085016;28;20517;-74
2022/09/23 03:59:39;;;;;;;25.63;22.93;;;;;;;;;;5074649;28;20406;-75
2022/09/23 04:02:06;;;;;;;25.70;22.55;;;9.30;99.90;;;;;;5093363;27;20472;-75
2022/09/23 04:04:33;;;;;;;24.38;21.77;;;;;;;;;;5109364;28;20477;-75
2022/09/23 04:06:59;;;;;;;25.55;22.83;;;;;;;;;;5098595;28;20442;-75
2022/09/23 04:09:26;;;;;;;26.77;22.58;;;;;;;;;;5095362;28;20955;-75
2022/09/23 04:11:52;;;;;;;25.17;21.43;;;;;;;;;;5095354;28;20404;-76
2022/09/23 04:14:19;;;;;;;26.40;21.70;;;;;;;;;;5089105;28;20430;-75
2022/09/23 04:16:45;;;;;;;25.25;21.95;;;;;;;;;;5107171;27;20423;-71
2022/09/23 04:19:12;;;;;;;24.65;21.95;;;;;;;;;;5112765;27;20414;-71
2022/09/23 04:21:38;;;;;;;24.50;21.90;;;;;;;;;;5098502;27;20467;-71
2022/09/23 04:24:05;;;;;;;25.17;22.47;;;;;;;;;;5110494;27;20551;-71
2022/09/23 04:26:31;;;;;;;27.02;22.60;;;;;;;;;;5099197;27;20543;-71
2022/09/23 04:28:57;;;;;;;26.52;22.00;;;;;;;;;;5081082;28;20430;-71
2022/09/23 04:31:24;;;;;;;26.58;22.58;;;;;;;;;;5057456;28;20409;-71
2022/09/23 04:33:50;;;;;;;28.15;22.38;;;;;;;;;;5060843;28;20622;-71
2022/09/23 04:36:16;;;;;;;24.45;21.85;;;;;;;;;;5094588;27;20414;-72
2022/09/23 04:38:44;;;;;;;25.60;22.42;;;;;;;;;;5090434;28;20426;-72
2022/09/23 04:41:10;;;;;;;29.95;22.42;;;;;;;;;;5090012;27;20418;-72
2022/09/23 04:43:36;;;;;;;28.63;22.80;;;;;;;;;;5114766;27;20390;-72
2022/09/23 04:46:03;;;;;;;27.03;22.63;;;;;;;;;;5102077;28;20451;-72
2022/09/23 04:48:29;;;;;;;25.25;22.23;;;;;;;;;;5094363;28;20424;-73
2022/09/23 04:51:03;;;;;;;24.73;22.13;;;;;;;;;;5105855;27;20429;-72
2022/09/23 04:53:30;;;;;;;26.70;22.25;;;;;;;;;;5108251;27;20990;-72
2022/09/23 04:56:11;;;;;;;25.45;22.67;;;9.10;99.90;;;;;;5083874;28;20914;-73
2022/09/23 04:58:37;;;;;;;25.40;22.70;;;9.10;99.90;;;;;;5088338;27;20519;-72
2022/09/23 05:01:15;;;;;;;25.63;22.67;;;9.10;99.90;;;;;;5097871;27;20394;-72
2022/09/23 05:03:42;;;;;;;25.05;22.05;;;;;;;;;;5107972;27;20525;-72
2022/09/23 05:06:09;;;;;;;25.95;23.15;;;9.10;99.90;;;;;;5080921;28;20917;-72
2022/09/23 05:08:36;;;;;;;27.00;23.33;;;;;;;;;;5085545;27;20526;-72
2022/09/23 05:11:03;;;;;;;25.00;22.33;;;;;;;;;;5114258;27;20439;-72
2022/09/23 05:13:30;;;;;;;27.83;23.55;;;;;;;;;;5113381;27;20511;-72
2022/09/23 05:15:58;;;;;;;30.70;25.55;;;8.90;99.90;;;;;;5109459;27;20414;-72
2022/09/23 05:18:24;;;;;;;28.55;25.15;;;;;;;;;;5095025;27;20416;-71
2022/09/23 05:20:54;;;;;;;30.50;25.50;;;9.10;99.90;;;;;;5103102;28;20825;-72
2022/09/23 05:23:21;;;;;;;26.70;23.48;;;;;;;;;;5098109;27;20423;-72
2022/09/23 05:25:47;;;;;;;26.97;23.13;;;;;;;;;;5091925;28;20424;-72
2022/09/23 05:28:16;;;;;;;28.33;22.55;;;9.10;99.90;;;;;;5110245;27;20422;-71
2022/09/23 05:30:43;;;;;;;26.85;23.10;;;;;;;;;;5107751;28;20420;-73
2022/09/23 05:33:09;;;;;;;30.23;23.83;;;;;;;;;;5077073;28;20780;-71
2022/09/23 05:35:35;;;;;;;26.37;22.67;;;;;;;;;;5102880;28;20463;-72
2022/09/23 05:38:02;;;;;;;25.58;22.15;;;;;;;;;;5078528;27;20426;-72
2022/09/23 05:40:28;;;;;;;25.15;22.45;;;;;;;;;;5129919;27;20501;-72
2022/09/23 05:42:55;;;;;;;25.63;22.73;;;;;;;;;;5111165;27;20421;-72
2022/09/23 05:45:21;;;;;;;25.35;22.02;;;;;;;;;;5095523;28;20520;-71
2022/09/23 05:47:47;;;;;;;24.73;22.13;;;;;;;;;;5114450;28;20472;-72
2022/09/23 05:50:13;;;;;;;25.67;22.77;;;;;;;;;;5092100;28;20442;-72
2022/09/23 05:52:40;;;;;;;27.90;24.02;;;;;;;;;;5091934;28;20429;-72
2022/09/23 05:55:06;;;;;;;25.13;22.50;;;;;;;;;;5066782;28;21006;-72
2022/09/23 05:57:32;;;;;;;26.35;22.83;;;;;;;;;;5093352;28;20410;-72
2022/09/23 05:59:58;;;;;;;24.48;21.85;;;;;;;;;;5098952;28;20465;-72
2022/09/23 06:02:24;;;;;;;24.83;21.77;;;;;;;;;;5093630;28;20407;-72
2022/09/23 06:04:50;;;;;;;27.00;22.83;;;;;;;;;;5096030;28;20418;-72
2022/09/23 06:07:16;;;;;;;23.85;21.27;;;;;;;;;;5104816;28;20421;-72
2022/09/23 06:09:42;;;;;;;26.90;23.00;;;;;;;;;;5102238;28;20424;-72
2022/09/23 06:12:08;;;;;;;25.25;22.55;;;;;;;;;;5114064;28;20479;-72
2022/09/23 06:14:35;;;;;;;25.08;21.08;;;;;;;;;;5110576;28;20439;-72
2022/09/23 06:17:01;;;;;;;23.73;21.23;;;;;;;;;;5107068;28;20402;-71
2022/09/23 06:19:27;;;;;;;25.27;21.95;;;;;;;;;;5083980;28;20508;-72
2022/09/23 06:21:53;;;;;;;23.77;20.63;;;;;;;;;;5097925;28;20421;-72
2022/09/23 06:24:19;;;;;;;24.35;20.75;;;;;;;;;;5104863;28;20971;-72
2022/09/23 06:26:45;;;;;;;22.55;20.08;;;;;;;;;;5094928;28;20420;-72
2022/09/23 06:29:11;;;;;;;23.38;20.60;;;;;;;;;;5060422;28;20431;-72
2022/09/23 06:31:39;;;;;;;23.08;20.58;;;;;;;;;;5061643;28;20425;-71
2022/09/23 06:34:05;;;;;;;23.40;20.90;;;;;;;;;;5049241;28;20442;-72
2022/09/23 06:36:31;;;;;;;26.65;20.98;;;;;;;;;;5052529;28;20422;-71
2022/09/23 06:38:57;;;;;;;24.15;20.33;;;;;;;;;;5052049;28;20973;-72
2022/09/23 06:41:23;;;;;;;23.20;20.75;;;;;;;;;;5064531;28;20416;-73
2022/09/23 06:43:49;;;;;;;25.73;22.40;;;;;;;;;;5053134;28;20510;-71
2022/09/23 06:46:16;;;;;;;26.40;21.88;;;;;;;;;;5064134;28;20432;-72
2022/09/23 06:48:42;;;;;;;25.90;21.40;;;;;;;;;;5052632;28;20934;-72
2022/09/23 06:51:12;;;;;;;24.55;21.80;;;9.80;99.90;;;;;;5036873;28;20409;-73
2022/09/23 06:53:38;;;;;;;24.67;21.55;;;;;;;;;;5037570;28;20848;-74
2022/09/23 06:56:05;;;;;;;22.70;20.17;;;;;;;;;;5086455;28;20901;-74
2022/09/23 06:58:32;;;;;;;27.52;23.00;;;;;;;;;;5064328;28;20419;-75
2022/09/23 07:01:03;;;;;;;26.10;21.33;;;;;;;;;;5061998;28;20415;-74
2022/09/23 07:03:30;;;;;;;24.02;21.15;;;;;;;;;;5075523;28;20509;-74
2022/09/23 07:05:57;;;;;;;24.90;20.90;;;;;;;;;;5057553;28;20417;-74
2022/09/23 07:08:23;;;;;;;23.52;21.02;;;;;;;;;;5056033;28;20418;-74
2022/09/23 07:10:53;;;;;;;25.05;21.23;;;;;;;;;;5061595;28;20470;-72
2022/09/23 07:13:19;;;;;;;24.13;21.23;;;;;;;;;;5068897;28;20424;-72
2022/09/23 07:15:53;;;;;;;25.67;21.37;;;;;;;;;;5081137;28;20486;-71
2022/09/23 07:18:22;;;;;;;25.65;21.13;;;10.10;99.90;;;;;;5075989;28;20477;-72
2022/09/23 07:20:49;;;;;;;23.83;20.77;;;;;;;;;;5075845;28;20398;-74
2022/09/23 07:23:16;;;;;;;24.50;20.80;;;;;;;;;;5068662;28;20431;-75
2022/09/23 07:25:42;;;;;;;23.42;20.90;;;;;;;;;;5056335;28;20441;-75
2022/09/23 07:28:09;;;;;;;23.75;20.77;;;;;;;;;;5112479;28;20417;-76
2022/09/23 07:30:36;;;;;;;24.20;20.47;;;;;;;;;;5113001;28;20406;-76
2022/09/23 07:33:03;;;;;;;25.17;20.85;;;;;;;;;;5096591;28;20414;-76
2022/09/23 07:35:29;;;;;;;27.60;19.73;;;;;;;;;;5095514;28;20431;-76
2022/09/23 07:37:55;;;;;;;23.70;20.27;;;;;;;;;;5113942;28;20494;-77
2022/09/23 07:40:22;;;;;;;23.25;19.90;;;;;;;;;;5110516;28;20410;-76
2022/09/23 07:42:48;;;;;;;26.17;20.92;;;;;;;;;;5098192;28;20406;-75
2022/09/23 07:45:14;;;;;;;21.67;19.35;;;10.90;99.90;;;;;;5113717;28;20467;-73
2022/09/23 07:47:40;;;;;;;22.90;18.98;;;;;;;;;;5113955;28;20972;-73
2022/09/23 07:50:10;;;;;;;19.90;17.77;;;10.60;99.90;;;;;;5103066;28;20423;-72
2022/09/23 07:52:36;;;;;;;21.77;18.10;;;;;;;;;;5102980;28;20424;-72
2022/09/23 07:55:04;;;;;;;19.73;17.03;;;11.10;99.90;;;;;;5114621;28;20464;-72
2022/09/23 07:57:30;;;;;;;21.00;17.52;;;11.30;99.90;;;;;;5094119;28;20423;-72
2022/09/23 07:59:56;;;;;;;21.08;17.33;;;;;;;;;;5075986;28;20432;-76
2022/09/23 08:02:22;;;;;;;19.27;17.17;;;;;;;;;;5078207;28;20415;-75
2022/09/23 08:04:48;;;;;;;21.52;18.08;;;;;;;;;;5086618;28;20429;-76
2022/09/23 08:07:15;;;;;;;18.88;16.90;;;;;;;;;;5101129;28;20814;-76
2022/09/23 08:09:42;;;;;;;18.73;16.73;;;;;;;;;;5100211;28;20433;-79
2022/09/23 08:12:09;;;;;;;19.60;17.13;;;;;;;;;;5115005;28;20898;-75
2022/09/23 08:14:35;;;;;;;20.48;16.77;;;;;;;;;;5101498;28;20424;-75
2022/09/23 08:17:01;;;;;;;20.38;16.10;;;;;;;;;;5113729;28;20488;-76
2022/09/23 08:19:27;;;;;;;19.80;16.73;;;;;;;;;;5095763;28;20416;-76
2022/09/23 08:21:53;;;;;;;18.90;16.30;;;;;;;;;;5097796;28;20728;-76
2022/09/23 08:24:22;;;;;;;17.95;16.05;;;11.90;99.90;;;;;;5109427;28;20425;-76
2022/09/23 08:26:52;;;;;;;19.50;16.08;;;12.10;99.90;;;;;;5047842;27;1816612;-76
2022/09/23 08:29:20;;;;;;;20.48;16.00;;;11.70;99.90;;;;;;5115850;27;20402;-76
2022/09/23 08:31:48;;;;;;;20.65;15.63;;;;;;;;;;5075789;28;20422;-76
2022/09/23 08:34:14;;;;;;;20.55;15.88;;;;;;;;;;5091840;28;20425;-76
2022/09/23 08:36:40;;;;;;;20.27;15.50;;;;;;;;;;5093835;27;21072;-77
2022/09/23 08:39:06;;;;;;;19.23;14.97;;;;;;;;;;5081176;28;20415;-78
2022/09/23 08:41:35;;;;;;;19.33;15.10;;;;;;;;;;5096809;28;20427;-79
2022/09/23 08:44:09;;;;;;;18.77;15.48;;;12.90;99.90;;;;;;5095153;28;20480;-79
2022/09/23 08:46:40;;;;;;;21.25;15.40;;;13.30;99.90;;;;;;5074937;28;20428;-79
2022/09/23 08:49:07;;;;;;;15.70;13.85;;;13.50;99.90;;;;;;5072013;27;20895;-78
2022/09/23 08:51:39;;;;;;;17.50;14.35;;;13.20;99.90;;;;;;5102331;28;20768;-79
2022/09/23 08:54:06;;;;;;;16.92;13.65;;;;;;;;;;5094524;28;20428;-79
2022/09/23 08:56:36;;;;;;;16.88;13.90;;;13.90;99.90;;;;;;5096424;27;20435;-80
2022/09/23 08:59:12;;;;;;;17.30;13.75;;;;;;;;;;5089110;28;20445;-80
2022/09/23 09:01:45;;;;;;;16.05;13.48;;;13.60;99.90;;;;;;5092645;27;20420;-77
2022/09/23 09:04:26;;;;;;;18.15;13.57;;;13.90;99.90;;;;;;5073786;27;20429;-80
2022/09/23 09:07:08;;;;;;;15.02;13.38;;;;;;;;;;5100522;27;20773;-76
2022/09/23 09:09:38;;;;;;;17.05;13.25;;;;;;;;;;5114707;27;20410;-76
2022/09/23 09:12:44;;;;;;;20.85;14.05;;;13.80;99.90;;;;;;5112845;27;20435;-77
2022/09/23 09:15:15;;;;;;;17.35;13.82;;;;;;;;;;5110025;27;20415;-76
2022/09/23 09:17:53;;;;;;;19.02;12.85;;;;;;;;;;5097662;28;20428;-77
2022/09/23 09:20:29;;;;;;;18.77;13.18;;;;;;;;;;5092903;28;20760;-77
2022/09/23 09:22:59;;;;;;;16.58;12.57;;;14.30;99.90;;;;;;5076689;28;20421;-78
2022/09/23 09:25:43;;;;;;;19.23;13.52;;;;;;;;;;5093814;27;20453;-78
2022/09/23 09:28:21;;;;;;;16.50;12.60;;;;;;;;;;5104720;27;20472;-77
2022/09/23 09:30:50;;;;;;;18.10;12.43;;;;;;;;;;5095751;28;20429;-77
2022/09/23 09:33:19;;;;;;;15.23;11.95;;;14.50;99.90;;;;;;5098437;27;20426;-79
2022/09/23 09:36:04;;;;;;;15.05;11.73;;;;;;;;;;5077184;28;20494;-77
2022/09/23 09:38:30;;;;;;;15.50;12.30;;;;;;;;;;5098794;27;20807;-77
2022/09/23 09:41:00;;;;;;;15.63;11.43;;;;;;;;;;5112099;27;20927;-76
2022/09/23 09:43:26;;;;;;;14.73;11.85;;;;;;;;;;5111644;27;20465;-77
2022/09/23 09:46:20;;;;;;;13.93;12.05;;;14.80;99.90;;;;;;5085359;28;20421;-76
2022/09/23 09:48:58;;;;;;;16.00;12.10;;;;;;;;;;5094771;28;20422;-77
2022/09/23 09:51:26;;;;;;;13.52;12.05;;;14.60;99.90;;;;;;5092448;28;20426;-77
2022/09/23 09:53:54;;;;;;;14.88;11.82;;;;;;;;;;5092619;28;20463;-77
2022/09/23 09:56:30;;;;;;;13.90;11.38;;;;;;;;;;5076001;28;20396;-77
2022/09/23 09:59:09;;;;;;;19.77;11.00;;;;;;;;;;5088557;28;20428;-77
2022/09/23 10:01:36;;;;;;;15.85;11.35;;;;;;;;;;5072837;28;20446;-77
2022/09/23 10:04:23;;;;;;;14.48;11.45;;;14.70;99.90;;;;;;5093735;28;20435;-77
2022/09/23 10:07:13;;;;;;;16.02;11.68;;;15.00;99.90;;;;;;5073267;28;20413;-77
2022/09/23 10:09:46;;;;;;;14.65;11.27;;;14.40;99.90;;;;;;5090444;28;20505;-77
2022/09/23 10:12:14;;;;;;;14.05;10.85;;;14.60;99.90;;;;;;5088212;28;20411;-77
2022/09/23 10:14:41;;;;;;;16.23;11.70;;;;;;;;;;5097551;28;20422;-77
2022/09/23 10:17:14;;;;;;;15.77;11.13;;;14.80;99.90;;;;;;5089852;28;20424;-77
2022/09/23 10:19:44;;;;;;;15.15;11.20;;;;;;;;;;5113602;28;20886;-77
2022/09/23 10:22:16;;;;;;;14.15;11.55;;;;;;;;;;5100836;28;20417;-78
2022/09/23 10:24:47;;;;;;;14.85;11.40;;;;;;;;;;5103271;28;20450;-78
2022/09/23 10:27:13;;;;;;;13.05;10.93;;;;;;;;;;5108330;28;20502;-78
2022/09/23 10:29:49;;;;;;;14.00;10.60;;;15.50;99.90;;;;;;5075111;28;20421;-77
2022/09/23 10:32:28;;;;;;;15.40;10.82;;;;;;;;;;5080352;27;20772;-74
2022/09/23 10:34:57;;;;;;;13.70;10.70;;;15.50;99.90;;;;;;5078361;27;20458;-75
2022/09/23 10:37:47;;;;;;;14.48;11.85;;;15.30;99.90;;;;;;5094030;28;20722;-75
2022/09/23 10:46:37;;;;;;;14.87;11.23;;;;;;;;;;5102771;27;20803;-77
2022/09/23 10:49:41;;;;;;;14.18;11.77;;;16.10;99.90;;;;;;5093174;28;20417;-77
2022/09/23 10:52:08;;;;;;;13.50;11.43;;;;;;;;;;5082910;27;20419;-77
2022/09/23 10:55:22;;;;;;;13.00;11.23;;;16.20;99.90;;;;;;5098169;28;20444;-77
2022/09/23 10:58:22;;;;;;;17.77;11.32;;;15.90;99.90;;;;;;5069339;28;20422;-77
2022/09/23 11:01:06;;;;;;;14.52;11.93;;;;;;;;;;5042046;27;20781;-77
2022/09/23 11:03:50;;;;;;;15.40;11.98;;;15.80;99.90;;;;;;5091768;27;20497;-76
2022/09/23 11:06:31;;;;;;;19.63;12.85;;;16.00;99.90;;;;;;5084011;27;20428;-75
2022/09/23 11:09:09;;;;;;;16.80;12.50;;;16.20;99.90;;;;;;5099308;28;20508;-75
2022/09/23 11:11:57;;;;;;;17.73;13.40;;;16.30;99.90;;;;;;5092105;28;20416;-76
2022/09/23 11:14:30;;;;;;;15.90;12.23;;;;;;;;;;5076029;28;20505;-77
2022/09/23 11:17:14;;;;;;;16.27;12.25;;;;;;;;;;5066374;28;20418;-76
2022/09/23 11:19:55;;;;;;;15.20;12.07;;;;;;;;;;5084037;28;20422;-77
2022/09/23 11:22:31;;;;;;;17.63;12.40;;;;;;;;;;5085122;27;20417;-78
2022/09/23 11:25:07;;;;;;;18.13;13.07;;;;;;;;;;5085403;28;20424;-78
2022/09/23 11:27:54;;;;;;;16.98;12.95;;;16.30;99.90;;;;;;5091248;27;20919;-78
2022/09/23 11:30:20;;;;;;;17.65;13.25;;;16.30;99.90;;;;;;5096912;28;20420;-78
2022/09/23 11:33:05;;;;;;;15.70;13.50;;;16.40;99.90;;;;;;5090909;28;20426;-75
2022/09/23 11:35:40;;;;;;;18.45;13.63;;;;;;;;;;5094591;28;20957;-77
2022/09/23 11:38:34;;;;;;;16.13;13.95;;;16.20;99.90;;;;;;5071849;28;20782;-78
2022/09/23 11:41:03;;;;;;;17.38;13.95;;;;;;;;;;5095399;28;20434;-77
2022/09/23 11:43:33;;;;;;;18.55;14.52;;;;;;;;;;5094692;27;20420;-77
2022/09/23 11:46:00;;;;;;;17.58;14.85;;;;;;;;;;5090417;28;20507;-77
2022/09/23 11:48:35;;;;;;;18.10;15.77;;;;;;;;;;5081212;28;20913;-77
2022/09/23 11:51:14;;;;;;;22.20;16.42;;;;;;;;;;5092084;27;20425;-78
2022/09/23 11:53:44;;;;;;;17.40;15.50;;;16.60;99.90;;;;;;5079724;28;20432;-79
2022/09/23 11:56:22;;;;;;;20.48;14.95;;;16.20;99.90;;;;;;5096338;28;20804;-79
2022/09/23 11:58:59;;;;;;;18.27;14.80;;;16.30;99.90;;;;;;5101226;27;20419;-80
2022/09/23 12:01:34;;;;;;;18.33;15.35;;;16.60;99.90;;;;;;5082430;28;20410;-80
2022/09/23 12:04:03;;;;;;;18.07;15.17;;;;;;;;;;5076069;28;20476;-80
2022/09/23 12:06:39;;;;;;;17.92;15.00;;;16.40;99.90;;;;;;5084452;27;21396;-79
2022/09/23 12:09:18;;;;;;;20.25;15.32;;;16.40;99.90;;;;;;5085358;28;20914;-79
2022/09/23 12:11:53;;;;;;;20.27;16.13;;;;;;;;;;5080174;28;20420;-79
2022/09/23 12:14:39;;;;;;;19.00;15.70;;;16.50;99.90;;;;;;5071660;28;20509;-79
2022/09/23 12:17:36;;;;;;;18.90;15.27;;;16.50;99.90;;;;;;5083442;28;20470;-78
2022/09/23 12:20:12;;;;;;;19.77;15.18;;;;;;;;;;5095760;27;20501;-78
2022/09/23 12:22:47;;;;;;;23.10;16.60;;;;;;;;;;5078450;28;20433;-79
2022/09/23 12:25:18;;;;;;;22.13;16.20;;;16.10;99.90;;;;;;5089781;28;20431;-78
2022/09/23 12:27:47;;;;;;;19.45;16.48;;;;;;;;;;5071449;27;20425;-79
2022/09/23 12:30:29;;;;;;;18.30;15.80;;;16.00;99.90;;;;;;5084227;28;20416;-79
2022/09/23 12:33:11;;;;;;;22.88;16.90;;;;;;;;;;5094411;28;20439;-78
2022/09/23 12:35:45;;;;;;;19.08;15.77;;;16.10;99.90;;;;;;5094981;28;20404;-79
2022/09/23 12:38:47;;;;;;;19.95;16.00;;;16.20;99.90;;;;;;5084049;27;20505;-80
2022/09/23 12:41:25;;;;;;;22.58;16.67;;;;;;;;;;5095326;27;20411;-79
2022/09/23 12:43:54;;;;;;;20.60;16.90;;;;;;;;;;5108077;27;20418;-79
2022/09/23 12:46:24;;;;;;;21.60;17.33;;;;;;;;;;5091196;28;20448;-79
2022/09/23 12:48:56;;;;;;;21.17;17.70;;;;;;;;;;5097128;28;20755;-79
2022/09/23 12:51:23;;;;;;;23.00;18.42;;;;;;;;;;5105813;28;20542;-78
2022/09/23 12:54:03;;;;;;;23.75;18.75;;;16.00;99.90;;;;;;5094190;27;20476;-78
2022/09/23 12:56:37;;;;;;;20.60;17.53;;;16.50;99.90;;;;;;5105647;27;20494;-79
2022/09/23 12:59:06;;;;;;;22.70;18.63;;;;;;;;;;5092261;27;20921;-79
2022/09/23 13:01:35;;;;;;;20.83;17.77;;;;;;;;;;5084606;28;20416;-79
2022/09/23 13:06:55;;;;;;;23.20;17.80;;;16.10;99.90;;;;;;5099922;27;21047;-79
2022/09/23 13:09:29;;;;;;;23.10;18.92;;;;;;;;;;5123341;27;20417;-79
2022/09/23 13:12:00;;;;;;;22.85;18.13;;;;;;;;;;5097851;28;20459;-78
2022/09/23 13:14:28;;;;;;;22.27;18.17;;;16.10;99.90;;;;;;5087773;28;20495;-78
2022/09/23 13:16:57;;;;;;;21.80;18.02;;;;;;;;;;5104737;28;20414;-79
2022/09/23 13:19:25;;;;;;;20.80;17.15;;;15.80;99.90;;;;;;5078377;28;20921;-79
2022/09/23 13:21:57;;;;;;;22.05;18.77;;;;;;;;;;5093728;28;20400;-79
2022/09/23 13:24:24;;;;;;;20.48;17.02;;;;;;;;;;5086572;28;20475;-79
2022/09/23 13:27:16;;;;;;;22.27;17.83;;;;;;;;;;5077133;28;20491;-79
2022/09/23 13:29:43;;;;;;;21.60;17.63;;;;;;;;;;5061360;28;20745;-79
2022/09/23 13:32:17;;;;;;;21.25;16.92;;;15.90;99.90;;;;;;5092406;28;20416;-79
2022/09/23 13:34:54;;;;;;;21.73;17.33;;;15.90;99.90;;;;;;5080623;28;20416;-79
2022/09/23 13:37:21;;;;;;;23.70;17.90;;;;;;;;;;5099878;27;20418;-79
2022/09/23 13:39:48;;;;;;;20.88;16.80;;;;;;;;;;5077291;27;20434;-79
2022/09/23 13:42:26;;;;;;;23.63;16.85;;;16.10;99.90;;;;;;5097134;28;20473;-79
2022/09/23 13:44:57;;;;;;;23.40;17.67;;;15.90;99.90;;;;;;5092108;28;20424;-81
2022/09/23 13:47:34;;;;;;;20.60;17.20;;;16.30;99.90;;;;;;5086048;28;20423;-79
2022/09/23 13:50:00;;;;;;;19.58;16.35;;;;;;;;;;5091836;28;20527;-76
2022/09/23 13:52:31;;;;;;;20.10;16.10;;;16.00;99.90;;;;;;5114461;28;20406;-78
2022/09/23 13:54:57;;;;;;;22.00;16.65;;;;;;;;;;5114438;27;20468;-76
2022/09/23 13:57:28;;;;;;;22.67;17.38;;;;;;;;;;5109798;28;20937;-77
2022/09/23 14:00:00;;;;;;;24.38;17.23;;;16.10;99.90;;;;;;5103524;28;20425;-77
2022/09/23 14:02:27;;;;;;;23.60;18.52;;;;;;;;;;5083373;28;20413;-78
2022/09/23 14:04:57;;;;;;;18.98;16.95;;;;;;;;;;5110895;28;20422;-77
2022/09/23 14:07:24;;;;;;;22.50;17.37;;;;;;;;;;5093953;28;20419;-77
2022/09/23 14:09:51;;;;;;;21.08;17.50;;;;;;;;;;5101593;28;20426;-78
2022/09/23 14:12:21;;;;;;;19.77;16.50;;;;;;;;;;5091413;28;20433;-78
2022/09/23 14:14:49;;;;;;;21.60;17.58;;;15.70;99.90;;;;;;5088251;28;20424;-78